Terminal Aerodrome Forecast
Issued by NWS

Home | Current Version | Previous Version | Text Only | Print | Product List | Glossary On
Versions: 1 2 3 4 5 6 7 8 9 10 11 12 13 14 15
000
FTUS44 KBMX 201100
TAFANB
TAF
KANB 201136Z 2012/2112 02004KT 5SM BR BKN005 OVC025
      TEMPO 2012/2014 2SM -RA BR OVC005
     FM201500 01004KT P6SM BKN030
     FM202300 03003KT P6SM BKN060
     FM210900 03003KT 5SM BR BKN010=

USA.gov is the U.S. government's official web portal to all federal, state and local government web resources and services.